Time;durP1;ratioP1;P1;durP2;ratioP2;P2;SDS_P1;SDS_P2;PMS_P1;PMS_P2;Temp;Humidity;BMP_temperature;BMP_pressure;BME280_temperature;BME280_humidity;BME280_pressure;Samples;Min_cycle;Max_cycle;Signal;HPM_P1;HPM_P2
2024/02/12 00:01:19;;;;;;;12.20;8.13;;;9.80;99.90;;;;;;5068205;28;20016;-69
2024/02/12 00:03:45;;;;;;;17.60;8.68;;;9.80;99.90;;;;;;5068007;28;20449;-68
2024/02/12 00:06:10;;;;;;;;;;;9.80;99.90;;;;;;5050653;28;20479;-69
2024/02/12 00:08:36;;;;;;;10.50;7.03;;;9.80;99.90;;;;;;5050295;28;19908;-69
2024/02/12 00:11:02;;;;;;;;;;;9.70;99.90;;;;;;5050803;28;20386;-69
2024/02/12 00:13:28;;;;;;;8.77;6.35;;;9.70;99.90;;;;;;5068039;28;19912;-69
2024/02/12 00:15:54;;;;;;;9.95;6.63;;;9.70;99.90;;;;;;5068180;28;20086;-69
2024/02/12 00:18:23;;;;;;;;;;;9.70;99.90;;;;;;5070436;28;20036;-69
2024/02/12 00:20:49;;;;;;;10.07;6.88;;;9.60;99.90;;;;;;5071776;28;19999;-68
2024/02/12 00:23:14;;;;;;;;;;;9.60;99.90;;;;;;5071995;28;20128;-69
2024/02/12 00:25:40;;;;;;;10.65;7.50;;;9.50;99.90;;;;;;5071674;28;19912;-69
2024/02/12 00:28:08;;;;;;;;;;;9.50;99.90;;;;;;5071861;28;20493;-69
2024/02/12 00:30:35;;;;;;;8.32;6.90;;;9.40;99.90;;;;;;5053558;28;19917;-69
2024/02/12 00:33:04;;;;;;;8.98;7.43;;;9.40;99.90;;;;;;5071572;28;20099;-69
2024/02/12 00:35:31;;;;;;;8.50;6.95;;;9.40;99.90;;;;;;5053679;28;20032;-70
2024/02/12 00:37:57;;;;;;;9.60;7.47;;;9.40;99.90;;;;;;5071459;28;20017;-68
2024/02/12 00:40:24;;;;;;;9.35;7.60;;;9.40;99.90;;;;;;5071363;28;20013;-68
2024/02/12 00:42:49;;;;;;;8.88;7.40;;;9.30;99.90;;;;;;5053275;28;20032;-69
2024/02/12 00:45:16;;;;;;;;;;;9.30;99.90;;;;;;5071730;28;20028;-69
2024/02/12 00:47:41;;;;;;;11.13;8.63;;;9.20;99.90;;;;;;5071315;28;19908;-69
2024/02/12 00:50:07;;;;;;;;;;;9.20;99.90;;;;;;5071621;28;20417;-68
2024/02/12 00:52:37;;;;;;;13.85;8.43;;;9.20;99.90;;;;;;5053391;28;20377;-69
2024/02/12 00:55:04;;;;;;;10.05;7.95;;;9.20;99.90;;;;;;5071473;28;20048;-68
2024/02/12 00:57:30;;;;;;;10.13;8.98;;;9.10;99.90;;;;;;5053224;28;20028;-69
2024/02/12 00:59:57;;;;;;;;;;;9.10;99.90;;;;;;5053598;28;20094;-68
2024/02/12 01:02:23;;;;;;;10.43;7.65;;;9.10;99.90;;;;;;5053311;28;19920;-69
2024/02/12 01:04:48;;;;;;;;;;;9.10;99.90;;;;;;5053712;28;20033;-69
2024/02/12 01:07:17;;;;;;;12.30;9.80;;;9.10;99.90;;;;;;5070975;28;20371;-69
2024/02/12 01:09:43;;;;;;;10.70;8.93;;;9.10;99.90;;;;;;5070801;28;20032;-69
2024/02/12 01:12:09;;;;;;;;;;;9.10;99.90;;;;;;5071468;28;20028;-69
2024/02/12 01:14:36;;;;;;;11.52;9.90;;;9.10;99.90;;;;;;5053191;28;19908;-68
2024/02/12 01:17:02;;;;;;;11.38;8.90;;;9.00;99.90;;;;;;5071235;28;20032;-69
2024/02/12 01:19:31;;;;;;;10.43;8.02;;;9.10;99.90;;;;;;5071290;28;20115;-69
2024/02/12 01:22:00;;;;;;;12.32;10.10;;;9.00;99.90;;;;;;5070949;28;20539;-69
2024/02/12 01:24:25;;;;;;;11.27;8.85;;;9.00;99.90;;;;;;5070786;28;20033;-68
2024/02/12 01:26:51;;;;;;;;;;;9.00;99.90;;;;;;5071648;28;20052;-68
2024/02/12 01:29:17;;;;;;;10.82;8.63;;;9.10;99.90;;;;;;5075108;28;20361;-69
2024/02/12 01:31:43;;;;;;;9.82;7.80;;;9.00;99.90;;;;;;5073881;28;20036;-68
2024/02/12 01:34:08;;;;;;;;;;;9.00;99.90;;;;;;5053199;28;20051;-68
2024/02/12 01:36:36;;;;;;;10.10;7.25;;;8.90;99.90;;;;;;5070486;28;19904;-68
2024/02/12 01:39:03;;;;;;;9.57;7.80;;;8.90;99.90;;;;;;5052337;28;20060;-69
2024/02/12 01:41:28;;;;;;;9.13;7.47;;;8.90;99.90;;;;;;5070295;28;20027;-69
2024/02/12 01:43:54;;;;;;;;;;;8.90;99.90;;;;;;5070708;28;20032;-69
2024/02/12 01:46:19;;;;;;;8.98;7.80;;;8.90;99.90;;;;;;5070309;28;19911;-69
2024/02/12 01:48:45;;;;;;;;;;;8.90;99.90;;;;;;5070622;28;20036;-69
2024/02/12 01:51:12;;;;;;;11.02;8.15;;;8.90;99.90;;;;;;5070150;28;19909;-70
2024/02/12 01:53:39;;;;;;;9.30;7.78;;;8.80;99.90;;;;;;5052077;28;20029;-68
2024/02/12 01:56:06;;;;;;;9.23;7.63;;;8.80;99.90;;;;;;5070266;28;20036;-69
2024/02/12 01:58:33;;;;;;;8.73;7.50;;;8.80;99.90;;;;;;5052021;28;20024;-69
2024/02/12 02:00:59;;;;;;;10.45;8.38;;;8.80;99.90;;;;;;5069929;28;20032;-69
2024/02/12 02:03:25;;;;;;;;;;;8.80;99.90;;;;;;5070260;28;20020;-69
2024/02/12 02:05:52;;;;;;;13.50;9.02;;;8.80;99.90;;;;;;5069976;28;19908;-66
2024/02/12 02:08:19;;;;;;;13.63;8.55;;;8.80;99.90;;;;;;5069744;28;20081;-69
2024/02/12 02:10:48;;;;;;;12.70;9.35;;;8.80;99.90;;;;;;5069544;28;20370;-69
2024/02/12 02:13:17;;;;;;;12.43;8.48;;;8.80;99.90;;;;;;5051590;28;20028;-69
2024/02/12 02:15:43;;;;;;;11.30;8.82;;;8.80;99.90;;;;;;5051635;28;20033;-69
2024/02/12 02:18:08;;;;;;;;;;;8.70;99.90;;;;;;5070084;28;20024;-69
2024/02/12 02:20:36;;;;;;;12.20;8.48;;;8.60;99.90;;;;;;5069556;28;19915;-68
2024/02/12 02:23:04;;;;;;;11.13;8.57;;;8.50;99.90;;;;;;5051597;28;20049;-69
2024/02/12 02:25:29;;;;;;;10.23;8.60;;;8.40;99.90;;;;;;5069267;28;20532;-69
2024/02/12 02:27:55;;;;;;;;;;;8.30;99.90;;;;;;5069854;28;20106;-68
2024/02/12 02:30:21;;;;;;;8.90;7.65;;;8.30;99.90;;;;;;5051375;28;19997;-69
2024/02/12 02:32:47;;;;;;;;;;;8.30;99.90;;;;;;5069602;28;20056;-69
2024/02/12 02:35:13;;;;;;;10.48;8.57;;;8.30;99.90;;;;;;5069283;28;19965;-69
2024/02/12 02:37:39;;;;;;;13.02;8.25;;;8.30;99.90;;;;;;5069238;28;20032;-69
2024/02/12 02:40:06;;;;;;;;;;;8.30;99.90;;;;;;5069114;28;20032;-68
2024/02/12 02:42:32;;;;;;;9.23;7.53;;;8.30;99.90;;;;;;5068980;28;19908;-69
2024/02/12 02:44:58;;;;;;;;;;;8.20;99.90;;;;;;5051603;28;20025;-69
2024/02/12 02:47:23;;;;;;;10.57;8.43;;;8.30;99.90;;;;;;5051058;28;20392;-69
2024/02/12 02:49:49;;;;;;;;;;;8.30;99.90;;;;;;5069462;28;20044;-69
2024/02/12 02:52:16;;;;;;;11.35;9.65;;;8.30;99.90;;;;;;5069084;28;19909;-69
2024/02/12 02:54:45;;;;;;;9.15;8.05;;;8.30;99.90;;;;;;5068905;28;20036;-68
2024/02/12 02:57:11;;;;;;;8.63;7.47;;;8.30;99.90;;;;;;5068871;28;20099;-69
2024/02/12 02:59:38;;;;;;;7.93;6.63;;;8.20;99.90;;;;;;5068853;28;20024;-69
2024/02/12 03:02:08;;;;;;;6.82;5.78;;;8.20;99.90;;;;;;5068842;28;20043;-68
2024/02/12 03:04:35;;;;;;;6.32;5.55;;;8.30;99.90;;;;;;5068605;28;20516;-69
2024/02/12 03:07:01;;;;;;;7.75;6.13;;;8.20;99.90;;;;;;5068722;28;20032;-69
2024/02/12 03:09:27;;;;;;;6.32;5.18;;;8.10;99.90;;;;;;5050661;28;20433;-69
2024/02/12 03:11:54;;;;;;;;;;;8.10;99.90;;;;;;5069132;28;20133;-69
2024/02/12 03:14:21;;;;;;;9.02;5.25;;;8.00;99.90;;;;;;5050675;28;20372;-69
2024/02/12 03:16:54;;;;;;;6.22;5.50;;;7.90;99.90;;;;;;5068647;28;20027;-67
2024/02/12 03:19:20;;;;;;;6.15;5.15;;;7.90;99.90;;;;;;5068642;28;20751;-69
2024/02/12 03:21:49;;;;;;;;;;;7.90;99.90;;;;;;5068931;28;20025;-69
2024/02/12 03:24:15;;;;;;;6.65;5.40;;;7.80;99.90;;;;;;5068269;28;19990;-69
2024/02/12 03:26:41;;;;;;;;;;;7.80;99.90;;;;;;5051148;28;20477;-69
2024/02/12 03:29:06;;;;;;;7.37;6.03;;;7.80;99.90;;;;;;5068484;28;19916;-69
2024/02/12 03:31:32;;;;;;;;;;;7.80;99.90;;;;;;5069009;28;20497;-68
2024/02/12 03:33:58;;;;;;;8.98;7.18;;;7.70;99.90;;;;;;5068380;28;19912;-69
2024/02/12 03:36:23;;;;;;;;;;;7.70;99.90;;;;;;5068908;28;20033;-69
2024/02/12 03:38:49;;;;;;;7.78;5.85;;;7.60;99.90;;;;;;5068447;28;19914;-69
2024/02/12 03:41:18;;;;;;;;;;;7.70;99.90;;;;;;5068936;28;20504;-69
2024/02/12 03:43:44;;;;;;;14.60;8.38;;;7.70;99.90;;;;;;5068392;28;19916;-69
2024/02/12 03:46:17;;;;;;;;;;;7.60;99.90;;;;;;5050628;28;20033;-69
2024/02/12 03:59:53;;;;;;;7.45;5.75;;;7.70;99.90;;;;;;5072395;28;20036;-68
2024/02/12 04:02:19;;;;;;;6.93;5.85;;;7.70;99.90;;;;;;5054333;28;20036;-69
2024/02/12 04:04:45;;;;;;;6.82;5.95;;;7.70;99.90;;;;;;5054777;28;20421;-69
2024/02/12 04:07:11;;;;;;;;;;;7.70;99.90;;;;;;5074148;28;20483;-70
2024/02/12 04:09:41;;;;;;;8.75;6.53;;;7.70;99.90;;;;;;5072697;28;19923;-69
2024/02/12 04:12:11;;;;;;;7.78;6.70;;;7.70;99.90;;;;;;5054354;28;20021;-69
2024/02/12 04:14:42;;;;;;;9.50;7.30;;;7.80;99.90;;;;;;5071839;28;20078;-69
2024/02/12 04:17:09;;;;;;;7.43;5.90;;;7.80;99.90;;;;;;5071841;28;20047;-69
2024/02/12 04:19:35;;;;;;;11.73;7.07;;;7.80;99.90;;;;;;5071813;28;20512;-69
2024/02/12 04:22:01;;;;;;;9.10;7.20;;;7.80;99.90;;;;;;5071800;28;20028;-69
2024/02/12 04:24:34;;;;;;;;;;;7.80;99.90;;;;;;5072013;28;20497;-68
2024/02/12 04:26:59;;;;;;;8.07;6.55;;;7.80;99.90;;;;;;5071747;28;20266;-69
2024/02/12 04:29:26;;;;;;;;;;;7.80;99.90;;;;;;5072046;28;20039;-69
2024/02/12 04:31:52;;;;;;;8.25;6.55;;;7.80;99.90;;;;;;5053641;28;19954;-69
2024/02/12 04:34:18;;;;;;;;;;;7.70;99.90;;;;;;5071997;28;20041;-69
2024/02/12 04:36:44;;;;;;;9.68;7.32;;;7.80;99.90;;;;;;5071396;28;19904;-69
2024/02/12 04:39:16;;;;;;;;;;;7.80;99.90;;;;;;5072012;28;20558;-69
2024/02/12 04:41:43;;;;;;;15.43;10.32;;;7.80;99.90;;;;;;5071519;28;20038;-69
2024/02/12 04:44:09;;;;;;;18.58;10.80;;;7.80;99.90;;;;;;5071341;28;20051;-69
2024/02/12 04:46:38;;;;;;;;;;;7.80;99.90;;;;;;5071865;28;20503;-69
2024/02/12 04:49:04;;;;;;;14.38;10.93;;;7.90;99.90;;;;;;5071235;28;19959;-69
2024/02/12 04:51:33;;;;;;;17.15;11.27;;;7.90;99.90;;;;;;5053375;28;20039;-69
2024/02/12 04:53:59;;;;;;;13.38;10.93;;;8.00;99.90;;;;;;5071219;28;20032;-69
2024/02/12 04:56:25;;;;;;;15.30;10.90;;;8.00;99.90;;;;;;5071330;28;20103;-69
2024/02/12 04:58:51;;;;;;;;;;;8.10;99.90;;;;;;5071588;28;20670;-69
2024/02/12 05:01:17;;;;;;;13.30;9.80;;;8.10;99.90;;;;;;5071116;28;20474;-69
2024/02/12 05:03:43;;;;;;;;;;;8.20;99.90;;;;;;5070688;28;20063;-68
2024/02/12 05:06:15;;;;;;;17.00;10.98;;;8.20;99.90;;;;;;5070989;28;20407;-68
2024/02/12 05:08:41;;;;;;;16.77;12.27;;;8.20;99.90;;;;;;5052891;28;20029;-67
2024/02/12 05:11:06;;;;;;;;;;;8.30;99.90;;;;;;5071484;28;20037;-69
2024/02/12 05:13:33;;;;;;;15.20;11.77;;;8.30;99.90;;;;;;5070818;28;20490;-69
2024/02/12 05:15:58;;;;;;;17.23;12.60;;;8.30;99.90;;;;;;5070841;28;20029;-68
2024/02/12 05:23:56;;;;;;;10.93;8.18;;;8.40;99.90;;;;;;5070619;28;20064;-68
2024/02/12 05:26:22;;;;;;;;;;;8.30;99.90;;;;;;5071023;28;20401;-68
2024/02/12 05:28:47;;;;;;;10.05;6.82;;;8.40;99.90;;;;;;5070483;28;19928;-69
2024/02/12 05:31:13;;;;;;;;;;;8.30;99.90;;;;;;5051058;28;20127;-69
2024/02/12 05:33:38;;;;;;;8.40;6.47;;;8.30;99.90;;;;;;5058160;28;20420;-69
2024/02/12 05:36:06;;;;;;;;;;;8.30;99.90;;;;;;5091010;28;20032;-69
2024/02/12 05:38:32;;;;;;;;;;;8.30;99.90;;;;;;5072644;28;19918;-67
2024/02/12 05:40:58;;;;;;;8.65;6.55;;;8.20;99.90;;;;;;5090571;28;20570;-68
2024/02/12 05:43:23;;;;;;;;;;;8.20;99.90;;;;;;5090735;28;20039;-69
2024/02/12 05:45:49;;;;;;;7.35;5.60;;;8.20;99.90;;;;;;5090481;28;19908;-67
2024/02/12 05:48:15;;;;;;;;;;;8.20;99.90;;;;;;5090902;28;20710;-69
2024/02/12 05:50:40;;;;;;;8.57;6.13;;;8.20;99.90;;;;;;5066495;28;19922;-67
2024/02/12 05:53:08;;;;;;;;;;;8.20;99.90;;;;;;5090740;28;20028;-69
2024/02/12 05:55:39;;;;;;;;;;;8.10;99.90;;;;;;5090753;28;20368;-68
2024/02/12 05:58:05;;;;;;;11.40;8.07;;;8.10;99.90;;;;;;5090211;28;20011;-68
2024/02/12 06:00:31;;;;;;;10.75;6.85;;;8.10;99.90;;;;;;5090201;28;20031;-67
2024/02/12 06:02:56;;;;;;;;;;;8.00;99.90;;;;;;5090166;28;20412;-69
2024/02/12 06:05:22;;;;;;;9.52;6.65;;;8.00;99.90;;;;;;5089901;28;20002;-69
2024/02/12 06:07:47;;;;;;;;;;;8.00;99.90;;;;;;5090381;28;20042;-69
2024/02/12 06:10:17;;;;;;;12.98;7.65;;;8.00;99.90;;;;;;5089802;28;19919;-67
2024/02/12 06:12:42;;;;;;;9.30;7.60;;;8.00;99.90;;;;;;5089675;28;20035;-68
2024/02/12 06:15:09;;;;;;;;;;;8.10;99.90;;;;;;5089141;28;20032;-67
2024/02/12 06:17:35;;;;;;;7.18;5.30;;;8.10;99.90;;;;;;5089811;28;19970;-69
2024/02/12 06:20:05;;;;;;;;;;;8.00;99.90;;;;;;5090077;28;20032;-69
2024/02/12 06:22:31;;;;;;;5.72;3.72;;;8.10;99.90;;;;;;5089516;28;19959;-68
2024/02/12 06:24:56;;;;;;;;;;;8.10;99.90;;;;;;5090005;28;20039;-68
2024/02/12 06:27:22;;;;;;;5.78;2.47;;;8.10;99.90;;;;;;5089270;28;19908;-69
2024/02/12 06:29:48;;;;;;;;;;;8.20;99.90;;;;;;5071726;28;20411;-68
2024/02/12 06:32:14;;;;;;;7.55;5.03;;;8.20;99.90;;;;;;5089631;28;19915;-69
2024/02/12 06:34:44;;;;;;;8.05;5.45;;;8.30;99.90;;;;;;5089650;28;20031;-69
2024/02/12 06:37:11;;;;;;;8.15;5.47;;;8.40;99.90;;;;;;5089229;28;20484;-69
2024/02/12 06:39:38;;;;;;;7.15;4.80;;;8.50;99.90;;;;;;5089363;28;20038;-69
2024/02/12 06:42:05;;;;;;;8.68;5.30;;;8.70;99.90;;;;;;5089370;28;20077;-69
2024/02/12 06:44:32;;;;;;;14.57;8.80;;;8.80;99.90;;;;;;5089583;28;20074;-69
2024/02/12 06:46:58;;;;;;;10.32;6.07;;;8.90;99.90;;;;;;5089598;28;20569;-70
2024/02/12 06:49:24;;;;;;;10.60;6.53;;;9.00;99.90;;;;;;5088951;28;20078;-69
2024/02/12 06:51:49;;;;;;;;;;;9.20;99.90;;;;;;5084197;28;20059;-69
2024/02/12 06:54:15;;;;;;;11.23;7.00;;;9.30;99.90;;;;;;5089112;28;19953;-67
2024/02/12 06:56:41;;;;;;;;;;;9.50;99.90;;;;;;5089666;28;20032;-69
2024/02/12 06:59:10;;;;;;;9.13;5.22;;;9.60;99.90;;;;;;5070982;28;20002;-69
2024/02/12 07:01:40;;;;;;;4.22;2.35;;;9.80;99.90;;;;;;5089081;28;20402;-69
2024/02/12 07:04:06;;;;;;;4.20;2.35;;;9.90;99.90;;;;;;5088936;28;20543;-69
2024/02/12 07:06:32;;;;;;;;;;;10.00;99.90;;;;;;5088986;28;20396;-68
2024/02/12 07:08:57;;;;;;;6.97;2.60;;;10.20;99.90;;;;;;5088895;28;19938;-69
2024/02/12 07:11:25;;;;;;;6.70;3.10;;;10.30;99.90;;;;;;5087831;28;20399;-69
2024/02/12 07:13:51;;;;;;;5.50;3.05;;;10.40;99.90;;;;;;5070731;28;20062;-68
2024/02/12 07:16:18;;;;;;;;;;;10.60;99.90;;;;;;5088014;28;20052;-66
2024/02/12 07:18:44;;;;;;;9.98;4.47;;;10.60;99.90;;;;;;5070719;28;19908;-69
2024/02/12 07:21:11;;;;;;;4.97;2.67;;;10.70;99.90;;;;;;5089159;28;20051;-69
2024/02/12 07:23:37;;;;;;;5.88;2.92;;;10.80;99.90;;;;;;5088687;28;20052;-68
2024/02/12 07:26:03;;;;;;;;;;;11.00;99.90;;;;;;5088904;28;20518;-69
2024/02/12 07:28:28;;;;;;;8.77;3.22;;;11.40;99.90;;;;;;5088114;28;19912;-68
2024/02/12 07:30:54;;;;;;;;;;;11.80;99.90;;;;;;5070841;28;20508;-69
2024/02/12 07:33:20;;;;;;;10.43;4.70;;;12.30;99.90;;;;;;5070749;28;20006;-69
2024/02/12 07:35:46;;;;;;;5.30;2.00;;;12.50;99.90;;;;;;5088742;28;20111;-70
2024/02/12 07:38:12;;;;;;;;;;;12.60;99.90;;;;;;5070825;28;20568;-68
2024/02/12 07:40:37;;;;;;;0.88;0.40;;;12.50;99.90;;;;;;5088337;28;19908;-69
2024/02/12 07:43:05;;;;;;;2.92;0.70;;;12.30;99.90;;;;;;5088242;28;20403;-69
2024/02/12 07:45:33;;;;;;;2.05;0.82;;;12.00;99.90;;;;;;5070169;28;20055;-68
2024/02/12 07:47:58;;;;;;;3.13;1.20;;;11.90;99.90;;;;;;5088507;28;20024;-69
2024/02/12 07:50:24;;;;;;;;;;;11.80;99.90;;;;;;5088869;28;20105;-69
2024/02/12 07:52:50;;;;;;;5.22;1.60;;;11.70;99.90;;;;;;5064401;28;20323;-68
2024/02/12 07:55:16;;;;;;;2.95;0.88;;;11.60;99.90;;;;;;5086955;28;20056;-69
2024/02/12 07:57:42;;;;;;;;;;;11.60;99.90;;;;;;5088871;28;20058;-69
2024/02/12 08:00:14;;;;;;;0.98;0.40;;;11.50;99.90;;;;;;5070037;28;20348;-69
2024/02/12 08:02:40;;;;;;;0.40;0.20;;;11.40;99.90;;;;;;5088426;28;20024;-69
2024/02/12 08:05:07;;;;;;;0.52;0.30;;;11.40;99.90;;;;;;5088094;28;20063;-69
2024/02/12 08:07:32;;;;;;;0.52;0.30;;;11.30;99.90;;;;;;5071044;28;20607;-69
2024/02/12 08:10:00;;;;;;;;;;;11.20;99.90;;;;;;5066851;28;20119;-69
2024/02/12 08:12:25;;;;;;;;;;;11.20;99.90;;;;;;5050089;28;20019;-68
2024/02/12 08:14:51;;;;;;;0.75;0.38;;;11.10;99.90;;;;;;5050045;28;19987;-68
2024/02/12 08:17:17;;;;;;;;;;;11.00;99.90;;;;;;5068314;28;20827;-68
2024/02/12 08:19:45;;;;;;;0.60;0.38;;;10.90;99.90;;;;;;5049800;28;19908;-68
2024/02/12 08:22:11;;;;;;;1.27;0.50;;;10.80;99.90;;;;;;5067686;28;20029;-68
2024/02/12 08:24:36;;;;;;;;;;;10.80;99.90;;;;;;5049774;28;20107;-68
2024/02/12 08:27:03;;;;;;;0.73;0.30;;;10.80;99.90;;;;;;5047862;28;19975;-69
2024/02/12 08:29:29;;;;;;;0.80;0.40;;;10.80;99.90;;;;;;5047784;28;20032;-69
2024/02/12 08:31:55;;;;;;;1.05;0.40;;;10.80;99.90;;;;;;5029927;28;20709;-69
2024/02/12 08:34:20;;;;;;;;;;;10.90;99.90;;;;;;5048341;28;20062;-69
2024/02/12 08:36:46;;;;;;;2.72;1.38;;;11.00;99.90;;;;;;5047799;28;19927;-68
2024/02/12 08:39:15;;;;;;;;;;;11.10;99.90;;;;;;5049613;28;20828;-68
2024/02/12 08:41:41;;;;;;;3.33;1.20;;;11.20;99.90;;;;;;5033532;28;19916;-69
2024/02/12 08:44:08;;;;;;;2.53;1.10;;;11.30;99.90;;;;;;5051372;28;20033;-69
2024/02/12 08:46:35;;;;;;;1.23;0.57;;;11.60;99.90;;;;;;5033031;28;20543;-69
2024/02/12 08:49:01;;;;;;;1.00;0.40;;;11.90;99.90;;;;;;5051176;28;20040;-68
2024/02/12 08:51:27;;;;;;;1.05;0.60;;;12.20;99.90;;;;;;5033210;28;20044;-67
2024/02/12 08:53:55;;;;;;;;;;;12.40;99.90;;;;;;5051271;28;20029;-69
2024/02/12 08:56:21;;;;;;;2.75;0.47;;;12.50;99.90;;;;;;5033374;28;19916;-69
2024/02/12 08:58:48;;;;;;;0.50;0.38;;;12.60;99.90;;;;;;5051137;28;20035;-69
2024/02/12 09:01:16;;;;;;;0.98;0.40;;;12.70;99.90;;;;;;5051013;28;20091;-68
2024/02/12 09:03:43;;;;;;;0.68;0.22;;;12.80;99.90;;;;;;5033447;28;20442;-69
2024/02/12 09:06:11;;;;;;;1.27;0.40;;;12.70;99.90;;;;;;5051133;28;20091;-70
2024/02/12 09:08:42;;;;;;;0.63;0.30;;;12.70;99.90;;;;;;5050996;28;20051;-69
2024/02/12 09:11:08;;;;;;;0.63;0.35;;;12.70;99.90;;;;;;5050852;28;20029;-69
2024/02/12 09:13:35;;;;;;;0.80;0.38;;;12.70;99.90;;;;;;5050761;28;20033;-69
2024/02/12 09:16:01;;;;;;;2.15;0.47;;;12.80;99.90;;;;;;5050887;28;20052;-70
2024/02/12 09:18:27;;;;;;;1.35;0.43;;;12.80;99.90;;;;;;5050736;28;20033;-69
2024/02/12 09:20:56;;;;;;;;;;;12.80;99.90;;;;;;5051208;28;20021;-69
2024/02/12 09:23:22;;;;;;;1.05;0.35;;;12.90;99.90;;;;;;5058452;28;19920;-69
2024/02/12 09:25:51;;;;;;;1.00;0.50;;;12.80;99.90;;;;;;5070630;28;20021;-69
2024/02/12 09:28:17;;;;;;;0.68;0.38;;;12.70;99.90;;;;;;5070533;28;20043;-69
2024/02/12 09:30:47;;;;;;;;;;;12.80;99.90;;;;;;5053564;28;20033;-69
2024/02/12 09:33:14;;;;;;;0.50;0.32;;;12.80;99.90;;;;;;5052624;28;19912;-69
2024/02/12 09:35:41;;;;;;;1.17;0.30;;;12.80;99.90;;;;;;5052555;28;20037;-69
2024/02/12 09:38:08;;;;;;;1.83;0.50;;;12.90;99.90;;;;;;5070667;28;20027;-68
2024/02/12 09:40:34;;;;;;;0.82;0.32;;;13.00;99.90;;;;;;5070442;28;20111;-69
2024/02/12 09:43:00;;;;;;;1.10;0.45;;;13.10;99.90;;;;;;5052365;28;20032;-69
2024/02/12 09:45:29;;;;;;;0.50;0.30;;;13.10;99.90;;;;;;5070306;28;20029;-69
2024/02/12 09:47:58;;;;;;;4.00;1.00;;;13.10;99.90;;;;;;5070131;28;20083;-68
2024/02/12 09:50:28;;;;;;;0.93;0.40;;;13.20;99.90;;;;;;5068475;28;20046;-69
2024/02/12 09:52:58;;;;;;;0.52;0.32;;;13.20;99.90;;;;;;5070045;28;20795;-68
2024/02/12 09:55:25;;;;;;;1.90;0.28;;;13.30;99.90;;;;;;5051967;28;20028;-70
2024/02/12 09:57:51;;;;;;;3.05;0.50;;;13.40;99.90;;;;;;5068725;28;20467;-69
2024/02/12 10:00:19;;;;;;;1.10;0.30;;;13.40;99.60;;;;;;5052010;28;20058;-69
2024/02/12 10:02:45;;;;;;;0.80;0.50;;;13.30;99.20;;;;;;5069799;28;20023;-68
2024/02/12 10:05:20;;;;;;;1.30;0.32;;;13.20;99.30;;;;;;5069892;28;20093;-68
2024/02/12 10:07:46;;;;;;;0.65;0.40;;;13.10;99.70;;;;;;5069947;28;20483;-69
2024/02/12 10:10:13;;;;;;;1.20;0.40;;;13.00;99.30;;;;;;5068370;28;20040;-69
2024/02/12 10:12:39;;;;;;;5.47;0.65;;;13.00;99.40;;;;;;5069134;28;20016;-69
2024/02/12 10:15:05;;;;;;;;;;;12.90;99.80;;;;;;5064623;28;20456;-68
2024/02/12 10:17:31;;;;;;;2.88;1.13;;;12.80;99.30;;;;;;5069144;28;19999;-69
2024/02/12 10:19:57;;;;;;;3.10;1.08;;;12.70;99.60;;;;;;5068931;28;20025;-69
2024/02/12 10:22:23;;;;;;;;;;;12.70;99.20;;;;;;5069551;28;20039;-69
2024/02/12 10:24:49;;;;;;;1.00;0.50;;;12.70;99.50;;;;;;5058406;28;20007;-67
2024/02/12 10:27:20;;;;;;;1.35;0.40;;;12.70;99.80;;;;;;5059934;28;20029;-68
2024/02/12 10:30:01;;;;;;;3.25;1.13;;;12.70;99.60;;;;;;5058529;28;20024;-68
2024/02/12 10:32:28;;;;;;;1.27;0.60;;;12.70;99.10;;;;;;5056945;28;20068;-68
2024/02/12 10:34:57;;;;;;;3.65;1.20;;;12.70;98.90;;;;;;5039869;28;20023;-68
2024/02/12 10:37:25;;;;;;;4.38;1.77;;;12.80;98.70;;;;;;5055859;28;20032;-69
2024/02/12 10:39:55;;;;;;;2.45;1.10;;;12.80;99.50;;;;;;5040078;28;20028;-69
2024/02/12 10:42:28;;;;;;;2.08;0.68;;;12.90;98.70;;;;;;5037420;28;20021;-69
2024/02/12 10:44:55;;;;;;;1.38;0.50;;;13.00;98.60;;;;;;5039855;28;20024;-68
2024/02/12 10:47:21;;;;;;;2.42;1.13;;;13.10;98.40;;;;;;5037157;28;20025;-70
2024/02/12 10:49:49;;;;;;;2.42;1.05;;;12.90;98.20;;;;;;5040669;28;20025;-67
2024/02/12 10:52:16;;;;;;;2.35;0.90;;;12.90;99.30;;;;;;5066389;28;20037;-69
2024/02/12 10:54:43;;;;;;;2.88;0.68;;;13.10;99.70;;;;;;5054977;28;20021;-69
2024/02/12 10:57:09;;;;;;;2.88;0.57;;;13.20;99.80;;;;;;5057799;28;20024;-68
2024/02/12 10:59:35;;;;;;;;;;;13.20;99.90;;;;;;5059730;28;20469;-68
2024/02/12 11:02:12;;;;;;;1.27;0.35;;;13.30;99.20;;;;;;5056649;28;19978;-69
2024/02/12 11:04:40;;;;;;;4.10;0.75;;;13.40;99.00;;;;;;5057078;28;20108;-69
2024/02/12 11:07:24;;;;;;;2.15;0.93;;;13.40;99.00;;;;;;5062711;28;20028;-67
2024/02/12 11:10:05;;;;;;;3.30;1.30;;;13.40;98.30;;;;;;5068500;28;20040;-69
2024/02/12 11:12:33;;;;;;;1.88;0.80;;;13.40;98.70;;;;;;5050502;28;20043;-69
2024/02/12 11:15:10;;;;;;;1.13;0.50;;;13.40;98.40;;;;;;5068381;28;20042;-69
2024/02/12 11:17:36;;;;;;;1.95;0.50;;;13.40;98.30;;;;;;5050538;28;20021;-69
2024/02/12 11:20:05;;;;;;;1.30;0.52;;;13.50;98.40;;;;;;5050534;28;20028;-69
2024/02/12 11:22:31;;;;;;;2.10;0.60;;;13.50;98.00;;;;;;5068218;28;20029;-69
2024/02/12 11:25:03;;;;;;;1.60;0.50;;;13.50;98.70;;;;;;5068254;28;20033;-68
2024/02/12 11:27:42;;;;;;;4.32;0.60;;;13.50;98.10;;;;;;5050339;28;20523;-69
2024/02/12 11:30:09;;;;;;;1.17;0.57;;;13.50;97.80;;;;;;5068286;28;20051;-69
2024/02/12 11:32:36;;;;;;;0.85;0.45;;;13.60;97.50;;;;;;5068364;28;20543;-68
2024/02/12 11:35:30;;;;;;;1.60;0.40;;;13.60;97.30;;;;;;5050413;28;20021;-69
2024/02/12 11:37:56;;;;;;;1.60;0.40;;;13.60;98.00;;;;;;5048118;28;20028;-69
2024/02/12 11:40:22;;;;;;;1.25;0.40;;;13.50;97.90;;;;;;5068522;28;20033;-69
2024/02/12 11:42:51;;;;;;;;;;;13.60;97.60;;;;;;5068969;28;20479;-68
2024/02/12 11:45:22;;;;;;;1.85;0.57;;;13.60;97.10;;;;;;5068316;28;19949;-70
2024/02/12 11:47:49;;;;;;;1.67;0.30;;;13.70;97.20;;;;;;5068489;28;20020;-69
2024/02/12 11:50:26;;;;;;;1.40;0.50;;;13.80;96.40;;;;;;5050446;28;20084;-69
2024/02/12 11:52:56;;;;;;;0.90;0.40;;;13.90;96.20;;;;;;5050429;28;20580;-70
2024/02/12 11:55:21;;;;;;;1.42;0.50;;;13.90;95.60;;;;;;5068409;28;20087;-70
2024/02/12 11:57:48;;;;;;;0.98;0.40;;;13.90;96.20;;;;;;5050424;28;20032;-70
2024/02/12 12:00:18;;;;;;;1.17;0.40;;;14.00;96.70;;;;;;5068267;28;20103;-69
2024/02/12 12:02:52;;;;;;;1.98;0.40;;;14.10;94.70;;;;;;5068155;28;20405;-69
2024/02/12 12:05:22;;;;;;;2.03;0.40;;;14.00;94.90;;;;;;5068177;28;20032;-69
2024/02/12 12:07:48;;;;;;;2.10;0.30;;;13.90;94.90;;;;;;5068181;28;20070;-69
2024/02/12 12:10:22;;;;;;;1.17;0.47;;;13.80;95.20;;;;;;5068216;28;20048;-70
2024/02/12 12:12:48;;;;;;;2.30;0.65;;;13.70;95.60;;;;;;5068057;28;20499;-69
2024/02/12 12:15:13;;;;;;;1.73;0.40;;;13.70;95.30;;;;;;5071507;28;20111;-69
2024/02/12 12:17:39;;;;;;;;;;;13.60;95.10;;;;;;5072521;28;20016;-69
2024/02/12 12:20:18;;;;;;;4.15;0.45;;;13.40;95.20;;;;;;5071954;28;19904;-68
2024/02/12 12:22:44;;;;;;;10.38;0.90;;;13.40;95.80;;;;;;5053670;28;20039;-67
2024/02/12 12:25:18;;;;;;;1.10;0.40;;;13.30;96.10;;;;;;5071909;28;20032;-69
2024/02/12 12:27:44;;;;;;;3.13;0.90;;;13.20;96.10;;;;;;5071775;28;20029;-69
2024/02/12 12:30:28;;;;;;;0.85;0.30;;;13.10;96.50;;;;;;5071666;28;20094;-69
2024/02/12 12:32:55;;;;;;;1.58;0.63;;;13.00;96.10;;;;;;5053616;28;20032;-69
2024/02/12 12:35:21;;;;;;;0.60;0.30;;;13.00;96.70;;;;;;5053603;28;20559;-69
2024/02/12 12:37:47;;;;;;;;;;;12.90;96.80;;;;;;5072587;28;20056;-68
2024/02/12 12:40:25;;;;;;;1.10;0.50;;;12.90;96.40;;;;;;5071567;28;19961;-69
2024/02/12 12:42:57;;;;;;;5.32;0.60;;;12.80;97.30;;;;;;5071640;28;20032;-69
2024/02/12 12:45:24;;;;;;;1.08;0.40;;;12.70;98.00;;;;;;5071506;28;20027;-69
2024/02/12 12:47:50;;;;;;;1.27;0.40;;;12.70;98.20;;;;;;5053570;28;20130;-69
2024/02/12 12:50:15;;;;;;;;;;;12.70;98.50;;;;;;5071742;28;20036;-68
2024/02/12 12:52:42;;;;;;;1.25;0.43;;;12.70;97.90;;;;;;5071280;28;19908;-68
2024/02/12 12:55:11;;;;;;;0.70;0.40;;;12.70;98.10;;;;;;5071300;28;20125;-68
2024/02/12 12:57:42;;;;;;;1.83;0.63;;;12.70;98.20;;;;;;5070939;28;20519;-68
2024/02/12 13:00:28;;;;;;;1.88;0.70;;;12.80;98.10;;;;;;5071044;28;20034;-68
2024/02/12 13:02:55;;;;;;;2.80;0.40;;;12.80;98.40;;;;;;5053165;28;20059;-67
2024/02/12 13:05:22;;;;;;;1.50;0.60;;;12.90;98.10;;;;;;5053013;28;20432;-70
2024/02/12 13:07:48;;;;;;;1.52;0.50;;;13.00;97.80;;;;;;5071067;28;20112;-69
2024/02/12 13:10:15;;;;;;;1.35;0.47;;;13.10;96.90;;;;;;5070918;28;20036;-69
2024/02/12 13:12:43;;;;;;;2.55;0.60;;;13.20;97.10;;;;;;5070528;28;20025;-69
2024/02/12 13:15:09;;;;;;;1.35;0.60;;;13.30;96.90;;;;;;5070664;28;20028;-69
2024/02/12 13:17:35;;;;;;;1.92;1.00;;;13.30;96.70;;;;;;5070910;28;20457;-69
2024/02/12 13:20:10;;;;;;;1.25;0.55;;;13.30;96.90;;;;;;5070752;28;20059;-70
2024/02/12 13:22:36;;;;;;;1.65;0.63;;;13.50;96.30;;;;;;5070166;28;20420;-68
2024/02/12 13:25:02;;;;;;;2.45;1.20;;;13.50;96.30;;;;;;5052139;28;20032;-69
2024/02/12 13:27:28;;;;;;;6.45;3.55;;;13.50;95.70;;;;;;5070653;28;20037;-67